Time;durP1;ratioP1;P1;durP2;ratioP2;P2;SDS_P1;SDS_P2;PMS_P1;PMS_P2;Temp;Humidity;BMP_temperature;BMP_pressure;BME280_temperature;BME280_humidity;BME280_pressure;Samples;Min_cycle;Max_cycle;Signal;HPM_P1;HPM_P2
2023/06/03 00:01:03;;;;;;;;;;;;;;;23.00;40.74;101677.03;2297086;77;51443;-76
2023/06/03 00:04:04;;;;;;;;;;;;;;;23.01;40.69;101680.05;2297207;76;22440;-76
2023/06/03 00:07:05;;;;;;;;;;;;;;;22.99;40.69;101678.90;2297025;77;51550;-76
2023/06/03 00:10:08;;;;;;;;;;;;;;;22.98;40.76;101671.81;2250859;77;51177;-76
2023/06/03 00:13:09;;;;;;;;;;;;;;;22.99;40.67;101680.73;2252865;76;52651;-76
2023/06/03 00:16:11;;;;;;;;;;;;;;;22.97;40.68;101680.11;2307249;76;50674;-76
2023/06/03 00:19:14;;;;;;;;;;;;;;;22.96;40.71;101677.04;2340671;74;51516;-76
2023/06/03 00:22:16;;;;;;;;;;;;;;;22.94;40.70;101671.84;2333154;76;50377;-76
2023/06/03 00:25:17;;;;;;;;;;;;;;;22.95;40.72;101674.03;2275025;76;50013;-75
2023/06/03 00:28:21;;;;;;;;;;;;;;;22.94;40.72;101673.20;2300160;76;51534;-76
2023/06/03 00:31:53;;;;;;;;;;;;;;;22.94;40.70;101673.20;2333522;76;51645;-76
2023/06/03 00:34:54;;;;;;;;;;;;;;;22.92;40.73;101677.94;2310832;75;52620;-75
2023/06/03 00:37:56;;;;;;;;;;;;;;;22.92;40.78;101671.70;2277046;76;51337;-76
2023/06/03 00:40:57;;;;;;;;;;;;;;;22.93;40.78;101672.02;2312878;77;50602;-76
2023/06/03 00:43:59;;;;;;;;;;;;;;;22.91;40.76;101678.94;2307910;75;51374;-75
2023/06/03 00:47:01;;;;;;;;;;;;;;;22.92;40.73;101681.16;2339052;75;51479;-77
2023/06/03 00:50:02;;;;;;;;;;;;;;;22.92;40.70;101676.59;2334939;75;49564;-76
2023/06/03 00:53:04;;;;;;;;;;;;;;;22.91;40.74;101679.46;2352904;75;51426;-75
2023/06/03 00:56:05;;;;;;;;;;;;;;;22.89;40.71;101678.31;2352914;75;50793;-75
2023/06/03 00:59:07;;;;;;;;;;;;;;;22.89;40.67;101679.66;2352974;74;53772;-75
2023/06/03 01:02:10;;;;;;;;;;;;;;;22.87;40.71;101680.87;2362558;75;52268;-75
2023/06/03 01:05:12;;;;;;;;;;;;;;;22.88;40.68;101681.19;2362524;75;50706;-76
2023/06/03 01:08:15;;;;;;;;;;;;;;;22.87;40.75;101679.52;2352745;75;50368;-75
2023/06/03 01:11:22;;;;;;;;;;;;;;;22.88;40.76;101682.53;2353130;74;50302;-75
2023/06/03 01:14:25;;;;;;;;;;;;;;;22.86;40.79;101675.13;2346862;75;50722;-75
2023/06/03 01:17:28;;;;;;;;;;;;;;;22.86;40.78;101679.19;2339273;75;50188;-76
2023/06/03 01:20:30;;;;;;;;;;;;;;;22.83;40.78;101685.27;2331371;74;50726;-75
2023/06/03 01:23:34;;;;;;;;;;;;;;;22.82;40.71;101684.95;2313086;77;51486;-76
2023/06/03 01:26:36;;;;;;;;;;;;;;;22.82;40.66;101682.26;2209337;78;51154;-78
2023/06/03 01:29:38;;;;;;;;;;;;;;;22.82;40.55;101690.87;2223784;79;50375;-76
2023/06/03 01:32:39;;;;;;;;;;;;;;;22.81;40.51;101684.64;2251387;79;50355;-76
2023/06/03 01:35:41;;;;;;;;;;;;;;;22.81;40.46;101685.99;2251380;79;50207;-76
2023/06/03 01:38:42;;;;;;;;;;;;;;;22.79;40.42;101686.69;2224894;78;51874;-75
2023/06/03 01:41:44;;;;;;;;;;;;;;;22.79;40.46;101685.34;2238465;78;52328;-76
2023/06/03 01:44:46;;;;;;;;;;;;;;;22.78;40.33;101682.29;2262860;77;50405;-76
2023/06/03 01:47:47;;;;;;;;;;;;;;;22.78;40.52;101691.73;2273258;77;50324;-75
2023/06/03 01:50:49;;;;;;;;;;;;;;;22.77;40.46;101690.08;2254526;78;50977;-76
2023/06/03 01:53:50;;;;;;;;;;;;;;;22.76;40.46;101685.72;2273335;77;51404;-76
2023/06/03 01:56:54;;;;;;;;;;;;;;;22.76;40.38;101689.77;2254413;78;51277;-76
2023/06/03 01:59:55;;;;;;;;;;;;;;;22.75;40.42;101681.32;2273090;77;51572;-76
2023/06/03 02:02:57;;;;;;;;;;;;;;;22.76;40.35;101683.50;2230257;78;50015;-76
2023/06/03 02:05:59;;;;;;;;;;;;;;;22.74;40.30;101679.66;2273366;78;50731;-74
2023/06/03 02:09:00;;;;;;;;;;;;;;;22.73;40.33;101676.61;2254579;78;50266;-76
2023/06/03 02:12:03;;;;;;;;;;;;;;;22.73;40.31;101683.88;2254530;77;50681;-76
2023/06/03 02:15:04;;;;;;;;;;;;;;;22.74;40.31;101691.80;2224599;77;51583;-76
2023/06/03 02:18:06;;;;;;;;;;;;;;;22.73;40.24;101684.71;2263687;77;50393;-76
2023/06/03 02:21:08;;;;;;;;;;;;;;;22.71;40.18;101682.73;2278573;76;51554;-75
2023/06/03 02:24:09;;;;;;;;;;;;;;;22.71;40.30;101690.83;2254921;78;50114;-76
2023/06/03 02:27:14;;;;;;;;;;;;;;;22.71;40.33;101689.48;2254455;78;51829;-76
2023/06/03 02:30:14;;;;;;;;;;;;;;;22.71;40.29;101694.87;2254991;78;22422;-74
2023/06/03 02:33:16;;;;;;;;;;;;;;;22.70;40.27;101686.95;2254677;78;50194;-76
2023/06/03 02:36:18;;;;;;;;;;;;;;;22.70;40.20;101699.92;2272972;78;50669;-76
2023/06/03 02:39:20;;;;;;;;;;;;;;;22.70;40.23;101698.58;2270492;77;50287;-76
2023/06/03 02:42:21;;;;;;;;;;;;;;;22.70;40.24;101692.34;2238232;78;51457;-74
2023/06/03 02:45:23;;;;;;;;;;;;;;;22.69;40.25;101693.39;2270392;78;50307;-76
2023/06/03 02:48:24;;;;;;;;;;;;;;;22.69;40.30;101698.78;2257241;78;50199;-77
2023/06/03 02:51:26;;;;;;;;;;;;;;;22.68;40.35;101696.56;2203512;79;49638;-77
2023/06/03 02:54:27;;;;;;;;;;;;;;;22.68;40.28;101700.61;2227531;79;50684;-77
2023/06/03 02:57:29;;;;;;;;;;;;;;;22.68;40.20;101701.97;2227460;79;51621;-77
2023/06/03 03:00:31;;;;;;;;;;;;;;;22.67;40.24;101694.91;2257393;79;51520;-75
2023/06/03 03:03:36;;;;;;;;;;;;;;;22.66;40.13;101693.24;2217995;78;49636;-74
2023/06/03 03:06:40;;;;;;;;;;;;;;;22.65;40.11;101696.95;2255402;78;22278;-77
2023/06/03 03:09:42;;;;;;;;;;;;;;;22.66;40.14;101699.98;2284103;78;50726;-76
2023/06/03 03:12:43;;;;;;;;;;;;;;;22.64;40.17;101692.58;2256032;78;51564;-75
2023/06/03 03:15:45;;;;;;;;;;;;;;;22.64;40.19;101699.33;2251881;78;52419;-76
2023/06/03 03:18:46;;;;;;;;;;;;;;;22.66;40.06;101705.87;2228979;78;50070;-77
2023/06/03 03:21:48;;;;;;;;;;;;;;;22.62;40.06;101697.32;2229379;78;50405;-76
2023/06/03 03:24:50;;;;;;;;;;;;;;;22.63;40.06;101699.50;2259463;77;50704;-77
2023/06/03 03:27:51;;;;;;;;;;;;;;;22.63;40.08;101702.20;2205582;78;49607;-77
2023/06/03 03:30:59;;;;;;;;;;;;;;;22.61;40.04;101701.88;2259521;78;50358;-77
2023/06/03 03:33:58;;;;;;;;;;;;;;;22.60;40.03;101702.05;2257694;78;22515;-77
2023/06/03 03:37:00;;;;;;;;;;;;;;;22.62;40.04;101709.45;2259459;78;50643;-77
2023/06/03 03:40:02;;;;;;;;;;;;;;;22.61;40.07;101702.40;2223927;79;49828;-76
2023/06/03 03:43:04;;;;;;;;;;;;;;;22.59;40.05;101706.62;2243925;79;50398;-77
2023/06/03 03:46:07;;;;;;;;;;;;;;;22.58;40.00;101709.48;2201974;79;50105;-76
2023/06/03 03:49:09;;;;;;;;;;;;;;;22.60;40.00;101707.45;2241494;79;50392;-77
2023/06/03 03:52:10;;;;;;;;;;;;;;;22.58;40.04;101714.40;2217442;79;51371;-77
2023/06/03 03:55:12;;;;;;;;;;;;;;;22.57;40.04;101710.52;2238262;79;50246;-76
2023/06/03 03:58:25;;;;;;;;;;;;;;;22.56;40.04;101712.91;2238251;79;50703;-76
2023/06/03 04:01:28;;;;;;;;;;;;;;;22.55;40.10;101717.95;2238380;78;50741;-77
2023/06/03 04:04:43;;;;;;;;;;;;;;;22.54;40.10;101721.17;2217550;79;49769;-77
2023/06/03 04:07:46;;;;;;;;;;;;;;;22.53;40.08;101727.59;2237120;78;51585;-77
2023/06/03 04:10:47;;;;;;;;;;;;;;;22.54;40.10;101724.38;2238133;78;50468;-76
2023/06/03 04:13:49;;;;;;;;;;;;;;;22.54;40.11;101724.38;2238465;79;50694;-76
2023/06/03 04:16:57;;;;;;;;;;;;;;;22.55;40.04;101731.44;2201148;79;50024;-76
2023/06/03 04:20:00;;;;;;;;;;;;;;;22.53;40.09;101728.08;2212750;79;50679;-77
2023/06/03 04:23:03;;;;;;;;;;;;;;;22.53;40.03;101728.08;2244327;79;50273;-77
2023/06/03 04:26:05;;;;;;;;;;;;;;;22.52;39.89;101730.46;2244461;79;51410;-77
2023/06/03 04:29:06;;;;;;;;;;;;;;;22.51;39.84;101734.19;2238019;79;51459;-77
2023/06/03 04:32:08;;;;;;;;;;;;;;;22.51;39.87;101736.38;2185386;80;50221;-77
2023/06/03 04:35:09;;;;;;;;;;;;;;;22.52;39.89;101735.34;2177099;80;50258;-77
2023/06/03 04:38:11;;;;;;;;;;;;;;;22.53;39.89;101738.38;2176884;80;50230;-77
2023/06/03 04:41:15;;;;;;;;;;;;;;;22.55;39.91;101738.19;2197717;79;49558;-77
2023/06/03 04:44:16;;;;;;;;;;;;;;;22.56;39.93;101741.23;2213241;79;50240;-77
2023/06/03 04:47:18;;;;;;;;;;;;;;;22.59;39.68;101741.69;2212236;79;50324;-76
2023/06/03 04:50:20;;;;;;;;;;;;;;;22.60;39.74;101733.08;2212419;79;50719;-77
2023/06/03 04:53:25;;;;;;;;;;;;;;;22.63;40.05;101729.17;2212614;79;49410;-77
2023/06/03 04:56:25;;;;;;;;;;;;;;;22.65;40.21;101727.14;2244132;79;22196;-76
2023/06/03 04:59:26;;;;;;;;;;;;;;;22.72;40.26;101732.96;2251232;77;50646;-77
2023/06/03 05:02:29;;;;;;;;;;;;;;;22.76;40.09;101731.58;2249436;78;51513;-76
2023/06/03 05:05:31;;;;;;;;;;;;;;;22.82;40.12;101728.13;2189473;79;49624;-77
2023/06/03 05:08:32;;;;;;;;;;;;;;;22.92;39.95;101732.44;2212960;79;50463;-76
2023/06/03 05:11:35;;;;;;;;;;;;;;;22.99;39.83;101732.02;2212543;79;50623;-76
2023/06/03 05:14:37;;;;;;;;;;;;;;;23.04;39.73;101733.66;2244319;79;51493;-75
2023/06/03 05:17:39;;;;;;;;;;;;;;;23.09;39.49;101735.28;2188878;79;51623;-74
2023/06/03 05:20:40;;;;;;;;;;;;;;;23.13;39.35;101737.95;2212614;79;50319;-73
2023/06/03 05:23:42;;;;;;;;;;;;;;;23.14;39.00;101733.38;2244461;79;50326;-76
2023/06/03 05:26:43;;;;;;;;;;;;;;;23.11;38.68;101744.56;2212271;79;50732;-74
2023/06/03 05:29:46;;;;;;;;;;;;;;;23.28;38.90;101735.77;2193161;78;51710;-75
2023/06/03 05:32:47;;;;;;;;;;;;;;;23.18;38.00;101738.73;2267423;78;50194;-75
2023/06/03 05:35:49;;;;;;;;;;;;;;;23.17;37.46;101731.64;2261085;78;50329;-73
2023/06/03 05:38:50;;;;;;;;;;;;;;;23.15;37.10;101735.07;2266686;78;50574;-74
2023/06/03 05:41:52;;;;;;;;;;;;;;;23.10;36.79;101735.63;2233685;77;52614;-74
2023/06/03 05:44:54;;;;;;;;;;;;;;;23.11;36.33;101729.70;2242795;78;50282;-74
2023/06/03 05:47:55;;;;;;;;;;;;;;;23.16;36.13;101736.22;2259210;77;50339;-74
2023/06/03 05:50:57;;;;;;;;;;;;;;;23.23;35.81;101734.97;2230108;78;50328;-75
2023/06/03 05:53:58;;;;;;;;;;;;;;;23.30;35.27;101732.33;2246535;77;50669;-75
2023/06/03 05:57:00;;;;;;;;;;;;;;;23.34;35.05;101730.94;2239806;78;50576;-74
2023/06/03 06:00:02;;;;;;;;;;;;;;;23.38;34.75;101733.60;2255743;78;51635;-74
2023/06/03 06:03:04;;;;;;;;;;;;;;;23.42;34.44;101732.18;2240446;78;50697;-74
2023/06/03 06:06:06;;;;;;;;;;;;;;;23.46;34.18;101732.14;2233540;78;50744;-73
2023/06/03 06:09:07;;;;;;;;;;;;;;;23.51;33.98;101731.06;2228292;78;52075;-75
2023/06/03 06:12:09;;;;;;;;;;;;;;;23.55;33.73;101732.86;2262294;77;50563;-75
2023/06/03 06:15:10;;;;;;;;;;;;;;;23.60;33.62;101733.12;2252396;78;51416;-74
2023/06/03 06:18:12;;;;;;;;;;;;;;;23.60;33.42;101735.30;2199597;79;51539;-75
2023/06/03 06:21:15;;;;;;;;;;;;;;;23.66;33.19;101738.62;2252862;79;51369;-74
2023/06/03 06:24:17;;;;;;;;;;;;;;;23.65;33.19;101742.84;2252986;79;51494;-74
2023/06/03 06:27:19;;;;;;;;;;;;;;;23.68;32.98;101736.53;2254027;78;51065;-73
2023/06/03 06:30:21;;;;;;;;;;;;;;;23.84;32.01;101736.02;2230518;78;49509;-74
2023/06/03 06:33:22;;;;;;;;;;;;;;;23.73;32.28;101736.00;2242882;78;51483;-74
2023/06/03 06:36:34;;;;;;;;;;;;;;;23.77;32.23;101741.87;2266037;78;51448;-74
2023/06/03 06:39:38;;;;;;;;;;;;;;;23.67;31.86;101736.22;2247816;78;50735;-75
2023/06/03 06:42:40;;;;;;;;;;;;;;;23.63;32.08;101740.33;2230694;78;50090;-75
2023/06/03 06:45:42;;;;;;;;;;;;;;;23.63;32.23;101741.67;2270083;78;50512;-75
2023/06/03 06:48:44;;;;;;;;;;;;;;;23.67;32.36;101734.87;2242691;78;51497;-75
2023/06/03 06:51:45;;;;;;;;;;;;;;;23.69;32.53;101734.17;2233102;79;51401;-75
2023/06/03 06:54:47;;;;;;;;;;;;;;;23.70;32.50;101733.66;2284741;77;51660;-76
2023/06/03 06:57:49;;;;;;;;;;;;;;;23.72;32.63;101732.99;2260862;78;51488;-74
2023/06/03 07:00:50;;;;;;;;;;;;;;;23.73;32.66;101739.22;2255536;78;51386;-74
2023/06/03 07:03:52;;;;;;;;;;;;;;;23.76;32.63;101738.84;2247835;78;50580;-76
2023/06/03 07:06:53;;;;;;;;;;;;;;;23.75;32.59;101741.23;2247243;78;51534;-74
2023/06/03 07:09:55;;;;;;;;;;;;;;;23.75;32.67;101733.12;2230189;78;51454;-75
2023/06/03 07:12:56;;;;;;;;;;;;;;;23.76;32.59;101738.84;2240691;79;51287;-76
2023/06/03 07:16:00;;;;;;;;;;;;;;;23.74;32.58;101735.48;2250174;77;51477;-76
2023/06/03 07:19:03;;;;;;;;;;;;;;;23.75;32.67;101731.25;2257303;77;50679;-75
2023/06/03 07:22:05;;;;;;;;;;;;;;;23.75;32.55;101734.47;2258171;78;22756;-76
2023/06/03 07:25:08;;;;;;;;;;;;;;;23.73;32.53;101735.17;2259485;78;51553;-75
2023/06/03 07:28:10;;;;;;;;;;;;;;;23.72;32.48;101730.78;2254517;78;51465;-75
2023/06/03 07:31:12;;;;;;;;;;;;;;;23.74;32.40;101735.48;2226014;78;51008;-76
2023/06/03 07:34:15;;;;;;;;;;;;;;;23.71;32.46;101746.13;2263955;78;52345;-76
2023/06/03 07:37:17;;;;;;;;;;;;;;;23.69;32.54;101741.45;2243245;78;50650;-77
2023/06/03 07:40:18;;;;;;;;;;;;;;;23.68;32.58;101735.19;2266534;77;51434;-76
2023/06/03 07:43:20;;;;;;;;;;;;;;;23.70;32.54;101743.95;2169365;79;49978;-77
2023/06/03 07:46:21;;;;;;;;;;;;;;;23.70;32.67;101743.11;2217853;79;50390;-76
2023/06/03 07:49:23;;;;;;;;;;;;;;;23.72;32.75;101736.18;2218152;80;50588;-77
2023/06/03 07:52:25;;;;;;;;;;;;;;;23.73;32.61;101739.22;2231749;79;50677;-76
2023/06/03 07:55:27;;;;;;;;;;;;;;;23.74;32.61;101733.64;2193446;79;50174;-77
2023/06/03 07:58:29;;;;;;;;;;;;;;;23.70;32.65;101730.44;2236843;79;51480;-77
2023/06/03 08:01:30;;;;;;;;;;;;;;;23.73;32.55;101727.06;2238582;79;51462;-76
2023/06/03 08:04:35;;;;;;;;;;;;;;;23.71;32.63;101731.27;2243437;79;50638;-76
2023/06/03 08:07:37;;;;;;;;;;;;;;;23.70;32.63;101733.14;2229523;79;51701;-77
2023/06/03 08:10:39;;;;;;;;;;;;;;;23.66;32.66;101733.21;2238299;77;50734;-76
2023/06/03 08:13:40;;;;;;;;;;;;;;;23.65;32.71;101732.88;2232626;79;50678;-76
2023/06/03 08:16:42;;;;;;;;;;;;;;;23.67;32.70;101729.99;2230033;79;51494;-76
2023/06/03 08:19:44;;;;;;;;;;;;;;;23.65;32.64;101731.52;2227581;79;51482;-76
2023/06/03 08:22:45;;;;;;;;;;;;;;;23.65;32.74;101731.52;2222045;79;50653;-76
2023/06/03 08:25:47;;;;;;;;;;;;;;;23.64;32.73;101727.67;2204180;79;52682;-76
2023/06/03 08:28:49;;;;;;;;;;;;;;;23.64;32.63;101731.20;2249327;79;50325;-76
2023/06/03 08:31:50;;;;;;;;;;;;;;;23.61;32.72;101728.89;2214877;79;51187;-75
2023/06/03 08:34:52;;;;;;;;;;;;;;;23.59;32.69;101736.34;2238962;78;50351;-76
2023/06/03 08:37:54;;;;;;;;;;;;;;;23.59;32.78;101733.64;2223497;79;50668;-74
2023/06/03 08:40:55;;;;;;;;;;;;;;;23.59;32.94;101733.64;2221891;80;50209;-75
2023/06/03 08:43:59;;;;;;;;;;;;;;;23.57;33.02;101732.16;2190154;79;52266;-75
2023/06/03 08:47:15;;;;;;;;;;;;;;;23.57;33.09;101732.99;2233649;78;51552;-74
2023/06/03 08:50:17;;;;;;;;;;;;;;;23.58;33.28;101734.69;2277392;78;50029;-74
2023/06/03 08:53:19;;;;;;;;;;;;;;;23.60;33.28;101731.25;2249293;78;50678;-74
2023/06/03 08:56:21;;;;;;;;;;;;;;;23.55;33.37;101735.04;2260192;77;51159;-75
2023/06/03 08:59:24;;;;;;;;;;;;;;;23.52;33.42;101738.13;2264923;77;51465;-76
2023/06/03 09:02:27;;;;;;;;;;;;;;;23.52;33.25;101732.72;2283464;77;50642;-76
2023/06/03 09:05:29;;;;;;;;;;;;;;;23.51;33.38;101722.95;2292318;77;51519;-75
2023/06/03 09:08:30;;;;;;;;;;;;;;;23.51;33.47;101732.93;2278269;77;53076;-77
2023/06/03 09:11:32;;;;;;;;;;;;;;;23.50;33.56;101730.72;2304260;77;51415;-77
2023/06/03 09:14:33;;;;;;;;;;;;;;;23.46;33.77;101724.03;2303736;77;51377;-77
2023/06/03 09:17:38;;;;;;;;;;;;;;;23.44;33.98;101716.62;2294527;77;50312;-76
2023/06/03 09:20:40;;;;;;;;;;;;;;;23.41;34.05;101723.25;2304156;75;52578;-75
2023/06/03 09:23:41;;;;;;;;;;;;;;;23.41;34.13;101722.42;2308414;75;51373;-77
2023/06/03 09:26:43;;;;;;;;;;;;;;;23.40;34.22;101714.83;2276066;77;50577;-76
2023/06/03 09:29:44;;;;;;;;;;;;;;;23.37;34.40;101712.48;2304171;77;50642;-76
2023/06/03 09:32:46;;;;;;;;;;;;;;;23.36;34.44;101717.58;2274043;78;52360;-76
2023/06/03 09:36:07;;;;;;;;;;;;;;;23.38;34.46;101712.83;2277269;77;51302;-77
2023/06/03 09:39:10;;;;;;;;;;;;;;;23.38;34.52;101713.34;2283256;77;50298;-76
2023/06/03 09:42:12;;;;;;;;;;;;;;;23.35;34.61;101712.34;2294285;77;23206;-76
2023/06/03 09:45:23;;;;;;;;;;;;;;;23.35;34.60;101705.11;2230072;78;51085;-75
2023/06/03 09:48:25;;;;;;;;;;;;;;;23.33;34.68;101695.00;2232259;78;50601;-76
2023/06/03 09:51:28;;;;;;;;;;;;;;;23.29;34.79;101703.14;2251576;78;50314;-76
2023/06/03 09:54:30;;;;;;;;;;;;;;;23.32;34.78;101708.69;2246346;78;50298;-75
2023/06/03 09:57:32;;;;;;;;;;;;;;;23.30;34.84;101712.08;2223905;78;51145;-76
2023/06/03 10:00:35;;;;;;;;;;;;;;;23.27;34.83;101710.59;2223925;78;50209;-75
2023/06/03 10:03:36;;;;;;;;;;;;;;;23.29;34.92;101705.02;2260334;77;50340;-76
2023/06/03 10:06:38;;;;;;;;;;;;;;;23.32;34.84;101707.34;2224326;78;50252;-76
2023/06/03 10:09:44;;;;;;;;;;;;;;;23.27;34.67;101705.19;2242691;78;50042;-76
2023/06/03 10:12:45;;;;;;;;;;;;;;;23.25;34.64;101709.97;2235128;79;22416;-76
2023/06/03 10:15:47;;;;;;;;;;;;;;;23.28;34.68;101712.28;2255367;77;51479;-76
2023/06/03 10:18:49;;;;;;;;;;;;;;;23.26;34.83;101702.18;2255739;78;50179;-76
2023/06/03 10:21:51;;;;;;;;;;;;;;;23.25;34.87;101701.34;2261075;78;50741;-76
2023/06/03 10:24:54;;;;;;;;;;;;;;;23.27;34.86;101701.14;2261825;78;50905;-76
2023/06/03 10:27:56;;;;;;;;;;;;;;;23.24;34.90;101701.00;2276952;78;50722;-76
2023/06/03 10:31:00;;;;;;;;;;;;;;;23.24;34.88;101698.30;2281323;78;51499;-75
2023/06/03 10:34:02;;;;;;;;;;;;;;;23.23;34.94;101700.70;2281268;78;50724;-76
2023/06/03 10:37:04;;;;;;;;;;;;;;;23.22;34.94;101688.72;2281040;78;51334;-76
2023/06/03 10:40:06;;;;;;;;;;;;;;;23.20;34.97;101688.92;2248357;78;51492;-76
2023/06/03 10:43:09;;;;;;;;;;;;;;;23.20;34.90;101690.80;2252781;77;53615;-76
2023/06/03 10:46:11;;;;;;;;;;;;;;;23.20;34.89;101687.58;2281179;77;51398;-75
2023/06/03 10:49:13;;;;;;;;;;;;;;;23.19;34.86;101688.58;2263450;78;51709;-76
2023/06/03 10:52:32;;;;;;;;;;;;;;;23.18;34.78;101687.44;2283124;78;51340;-76
2023/06/03 10:55:54;;;;;;;;;;;;;;;23.18;34.51;101680.69;2269111;77;51633;-76
2023/06/03 10:59:00;;;;;;;;;;;;;;;23.18;34.50;101684.22;2281191;77;51412;-76
2023/06/03 11:02:02;;;;;;;;;;;;;;;23.15;34.24;101679.20;2230897;77;51651;-76
2023/06/03 11:05:23;;;;;;;;;;;;;;;23.15;34.05;101677.85;2260752;77;51538;-76
2023/06/03 11:08:43;;;;;;;;;;;;;;;23.16;34.01;101674.63;2292755;77;50636;-76
2023/06/03 11:11:52;;;;;;;;;;;;;;;23.14;33.90;101666.70;2292396;76;50297;-76
2023/06/03 11:14:51;;;;;;;;;;;;;;;23.11;33.74;101662.22;2285785;77;22272;-76
2023/06/03 11:18:10;;;;;;;;;;;;;;;23.11;33.70;101660.34;2280106;77;51441;-75
2023/06/03 11:21:31;;;;;;;;;;;;;;;23.09;33.65;101656.98;2293279;77;50618;-76
2023/06/03 11:24:34;;;;;;;;;;;;;;;23.09;33.52;101666.95;2293286;77;51448;-75
2023/06/03 11:27:37;;;;;;;;;;;;;;;23.07;33.46;101658.20;2284807;77;51451;-77
2023/06/03 11:30:55;;;;;;;;;;;;;;;23.07;33.30;101668.52;2262112;77;50004;-76
2023/06/03 11:34:15;;;;;;;;;;;;;;;23.06;33.36;101661.42;2271177;77;52341;-76
2023/06/03 11:37:20;;;;;;;;;;;;;;;23.05;33.34;101662.46;2266622;77;50728;-76
2023/06/03 11:40:22;;;;;;;;;;;;;;;23.05;33.16;101658.41;2242683;77;50906;-75
2023/06/03 11:43:23;;;;;;;;;;;;;;;23.05;32.82;101657.06;2263129;77;50193;-74
2023/06/03 11:46:25;;;;;;;;;;;;;;;23.05;32.90;101658.41;2247606;77;50628;-74
2023/06/03 11:49:26;;;;;;;;;;;;;;;23.04;32.73;101660.28;2285926;77;50579;-75
2023/06/03 11:52:28;;;;;;;;;;;;;;;23.04;32.74;101656.72;2194090;79;51634;-75
2023/06/03 11:55:30;;;;;;;;;;;;;;;23.04;32.66;101654.02;2206192;79;50568;-73
2023/06/03 11:58:32;;;;;;;;;;;;;;;23.03;32.78;101653.19;2254949;78;50221;-75
2023/06/03 12:01:34;;;;;;;;;;;;;;;23.03;32.75;101642.91;2281281;77;50425;-74
2023/06/03 12:04:35;;;;;;;;;;;;;;;23.04;32.63;101645.44;2233597;77;50983;-76
2023/06/03 12:07:37;;;;;;;;;;;;;;;23.04;32.60;101638.69;2262129;77;50722;-77
2023/06/03 12:10:42;;;;;;;;;;;;;;;23.05;32.48;101634.11;2292948;77;51439;-75
2023/06/03 12:13:44;;;;;;;;;;;;;;;23.04;32.62;101635.12;2261018;77;51586;-75
2023/06/03 12:16:46;;;;;;;;;;;;;;;23.04;32.69;101628.38;2246799;77;51556;-75
2023/06/03 12:19:48;;;;;;;;;;;;;;;23.04;32.72;101627.02;2293018;76;50678;-75
2023/06/03 12:22:50;;;;;;;;;;;;;;;23.02;32.64;101619.13;2293046;77;49926;-77
2023/06/03 12:25:58;;;;;;;;;;;;;;;23.02;32.73;101619.66;2293157;77;51576;-76
2023/06/03 12:29:10;;;;;;;;;;;;;;;23.02;32.70;101615.09;2261935;76;51041;-76
2023/06/03 12:32:12;;;;;;;;;;;;;;;23.02;32.82;101613.73;2293300;77;51505;-77
2023/06/03 12:35:14;;;;;;;;;;;;;;;23.02;32.78;101613.73;2293005;77;51395;-75
2023/06/03 12:38:15;;;;;;;;;;;;;;;23.01;32.67;101590.45;2261979;77;50136;-78
2023/06/03 12:41:17;;;;;;;;;;;;;;;23.00;32.61;101604.16;2237687;77;51157;-76
2023/06/03 12:44:19;;;;;;;;;;;;;;;22.99;32.69;101607.86;2289267;77;50287;-75
2023/06/03 12:47:21;;;;;;;;;;;;;;;22.99;32.68;101607.38;2265655;77;50333;-76
2023/06/03 12:50:26;;;;;;;;;;;;;;;22.99;32.69;101602.46;2255397;79;50724;-74
2023/06/03 12:53:27;;;;;;;;;;;;;;;23.00;32.64;101604.16;2225238;79;52661;-75
2023/06/03 12:56:29;;;;;;;;;;;;;;;22.99;32.75;101602.46;2254887;79;51493;-75
2023/06/03 12:59:30;;;;;;;;;;;;;;;23.01;32.74;101601.77;2264134;77;51386;-76
2023/06/03 13:02:33;;;;;;;;;;;;;;;23.00;32.78;101588.79;2280947;77;51407;-75
2023/06/03 13:05:34;;;;;;;;;;;;;;;23.01;32.78;101582.35;2254267;77;51221;-75
2023/06/03 13:08:37;;;;;;;;;;;;;;;23.01;32.81;101585.57;2288801;77;51624;-76
2023/06/03 13:11:38;;;;;;;;;;;;;;;23.02;32.73;101587.27;2262751;77;51483;-74
2023/06/03 13:14:40;;;;;;;;;;;;;;;23.01;32.84;101595.84;2275673;77;52315;-75
2023/06/03 13:17:42;;;;;;;;;;;;;;;23.03;32.54;101596.50;2245638;77;53552;-75
2023/06/03 13:20:43;;;;;;;;;;;;;;;23.03;32.34;101584.88;2266781;77;50801;-75
2023/06/03 13:23:45;;;;;;;;;;;;;;;22.98;32.26;101579.20;2254371;78;51346;-73
2023/06/03 13:26:47;;;;;;;;;;;;;;;23.03;32.47;101578.12;2276042;78;52330;-74
2023/06/03 13:29:48;;;;;;;;;;;;;;;23.02;32.86;101570.55;2249949;79;50938;-75
2023/06/03 13:32:50;;;;;;;;;;;;;;;23.04;33.36;101572.55;2228499;78;51510;-74
2023/06/03 13:35:52;;;;;;;;;;;;;;;23.03;33.42;101577.61;2283252;78;50582;-75
2023/06/03 13:38:53;;;;;;;;;;;;;;;23.01;33.64;101570.20;2234071;78;51415;-76
2023/06/03 13:41:55;;;;;;;;;;;;;;;23.01;34.13;101567.50;2232568;79;52455;-75
2023/06/03 13:44:57;;;;;;;;;;;;;;;22.85;30.72;101562.83;2257070;78;50648;-75
2023/06/03 13:47:58;;;;;;;;;;;;;;;22.61;29.59;101558.08;2214266;76;50487;-75
2023/06/03 13:51:01;;;;;;;;;;;;;;;22.64;29.35;101556.35;2262002;77;51531;-76
2023/06/03 13:54:03;;;;;;;;;;;;;;;22.38;28.00;101561.71;2245257;78;50233;-75
2023/06/03 13:57:05;;;;;;;;;;;;;;;22.18;28.26;101554.65;2212439;79;52330;-76
2023/06/03 14:00:08;;;;;;;;;;;;;;;21.89;27.98;101566.23;2212657;79;51378;-76
2023/06/03 14:03:10;;;;;;;;;;;;;;;21.71;27.50;101551.75;2212655;79;50607;-76
2023/06/03 14:06:11;;;;;;;;;;;;;;;21.90;28.46;101549.04;2212377;79;51110;-76
2023/06/03 14:09:13;;;;;;;;;;;;;;;21.87;27.43;101552.63;2212167;79;49893;-76
2023/06/03 14:12:15;;;;;;;;;;;;;;;21.96;28.16;101548.81;2244336;79;50308;-75
2023/06/03 14:15:16;;;;;;;;;;;;;;;21.94;27.25;101550.88;2256345;78;52185;-76
2023/06/03 14:18:18;;;;;;;;;;;;;;;21.90;27.41;101544.99;2245752;78;50862;-75
2023/06/03 14:21:20;;;;;;;;;;;;;;;21.90;27.80;101539.61;2246975;78;51474;-75
2023/06/03 14:24:21;;;;;;;;;;;;;;;21.90;28.21;101546.34;2244340;79;50702;-75
2023/06/03 14:27:23;;;;;;;;;;;;;;;21.94;28.15;101536.05;2212416;79;50387;-76
2023/06/03 14:30:24;;;;;;;;;;;;;;;21.92;27.78;101530.00;2188857;79;49453;-76
2023/06/03 14:33:26;;;;;;;;;;;;;;;21.80;27.23;101529.60;2230870;79;50702;-76
2023/06/03 14:36:28;;;;;;;;;;;;;;;21.73;27.12;101525.47;2203616;80;50434;-76
2023/06/03 14:39:30;;;;;;;;;;;;;;;21.86;28.18;101519.45;2226427;80;50215;-76
2023/06/03 14:42:31;;;;;;;;;;;;;;;21.88;28.22;101522.78;2203624;80;50203;-76
2023/06/03 14:45:33;;;;;;;;;;;;;;;21.93;27.35;101521.72;2238663;77;50278;-74
2023/06/03 14:48:34;;;;;;;;;;;;;;;21.71;27.29;101516.73;2212308;79;50306;-75
2023/06/03 14:51:36;;;;;;;;;;;;;;;21.75;27.52;101519.88;2229083;78;50716;-75
2023/06/03 14:54:38;;;;;;;;;;;;;;;21.53;27.04;101517.06;2243164;78;51013;-74
2023/06/03 14:57:39;;;;;;;;;;;;;;;21.47;27.53;101516.42;2248573;78;50587;-76
2023/06/03 15:00:41;;;;;;;;;;;;;;;21.64;28.16;101528.42;2252926;78;50708;-75
2023/06/03 15:03:42;;;;;;;;;;;;;;;21.61;27.64;101521.53;2219168;78;50331;-75
2023/06/03 15:06:45;;;;;;;;;;;;;;;21.63;27.92;101518.16;2281460;78;50689;-76
2023/06/03 15:09:46;;;;;;;;;;;;;;;21.65;27.85;101515.27;2223804;78;51146;-75
2023/06/03 15:12:48;;;;;;;;;;;;;;;21.72;28.04;101513.00;2247932;78;50195;-75
2023/06/03 15:15:50;;;;;;;;;;;;;;;21.56;27.02;101506.95;2232429;78;51385;-75
2023/06/03 15:18:51;;;;;;;;;;;;;;;21.62;27.88;101505.69;2190467;79;50051;-75
2023/06/03 15:21:53;;;;;;;;;;;;;;;21.64;27.68;101504.17;2214509;79;52529;-75
2023/06/03 15:24:54;;;;;;;;;;;;;;;21.66;28.32;101505.67;2247073;79;50263;-74
2023/06/03 15:27:56;;;;;;;;;;;;;;;21.71;28.67;101497.05;2269603;76;50565;-75
2023/06/03 15:30:58;;;;;;;;;;;;;;;21.70;27.35;101496.70;2256668;78;51699;-74
2023/06/03 15:34:00;;;;;;;;;;;;;;;21.62;27.70;101488.70;2270368;78;50645;-75
2023/06/03 15:37:03;;;;;;;;;;;;;;;21.17;26.84;101487.69;2251851;78;50748;-74